createdAt,value
2023-02-21T00:01:04.512Z,33.73
2023-02-21T00:03:52.147Z,37.37
2023-02-21T00:06:38.822Z,40.83
2023-02-21T00:09:24.134Z,36.13
2023-02-21T00:12:12.449Z,35.87
2023-02-21T00:14:59.949Z,39.00
2023-02-21T00:17:48.798Z,38.70
2023-02-21T00:20:34.204Z,39.40
2023-02-21T00:23:19.526Z,37.70
2023-02-21T00:26:05.076Z,35.43
2023-02-21T00:28:51.888Z,38.77
2023-02-21T00:31:38.539Z,39.53
2023-02-21T00:34:24.072Z,38.63
2023-02-21T00:37:13.644Z,37.47
2023-02-21T00:39:59.016Z,38.47
2023-02-21T00:42:44.333Z,37.63
2023-02-21T00:45:29.571Z,37.90
2023-02-21T00:48:14.863Z,39.33
2023-02-21T00:51:00.129Z,42.00
2023-02-21T00:53:48.234Z,36.93
2023-02-21T00:56:34.081Z,41.87
2023-02-21T00:59:19.815Z,43.57
2023-02-21T01:02:05.017Z,40.07
2023-02-21T01:04:50.320Z,44.33
2023-02-21T01:07:35.545Z,43.27
2023-02-21T01:10:20.914Z,43.30
2023-02-21T01:13:06.176Z,43.70
2023-02-21T01:15:51.392Z,41.20
2023-02-21T01:18:36.933Z,42.50
2023-02-21T01:21:25.097Z,45.53
2023-02-21T01:24:10.394Z,50.47
2023-02-21T01:26:55.855Z,51.03
2023-02-21T01:29:41.021Z,50.93
2023-02-21T01:32:26.313Z,49.00
2023-02-21T01:35:11.727Z,50.40
2023-02-21T01:37:59.114Z,50.13
2023-02-21T01:40:45.110Z,50.70
2023-02-21T01:43:39.298Z,49.03
2023-02-21T01:46:25.623Z,51.27
2023-02-21T01:49:13.811Z,49.37
2023-02-21T01:52:01.146Z,52.53
2023-02-21T01:54:52.889Z,51.40
2023-02-21T01:57:39.601Z,53.77
2023-02-21T02:00:27.838Z,53.37
2023-02-21T02:03:19.330Z,52.73
2023-02-21T02:06:08.369Z,53.17
2023-02-21T02:08:54.443Z,57.20
2023-02-21T02:11:50.032Z,55.70
2023-02-21T02:14:26.059Z,53.70
2023-02-21T02:17:16.513Z,48.03
2023-02-21T02:20:24.356Z,50.83
2023-02-21T02:23:15.783Z,56.53
2023-02-21T02:26:19.853Z,54.70
2023-02-21T02:29:13.893Z,52.27
2023-02-21T02:32:03.423Z,53.17
2023-02-21T02:34:53.916Z,51.97
2023-02-21T02:37:31.751Z,55.87
2023-02-21T02:40:25.970Z,55.27
2023-02-21T02:42:55.413Z,52.60
2023-02-21T02:45:54.301Z,55.43
2023-02-21T02:48:37.397Z,58.23
2023-02-21T02:51:09.341Z,56.00
2023-02-21T02:53:36.160Z,67.33
2023-02-21T02:56:06.158Z,54.50
2023-02-21T02:58:47.795Z,56.77
2023-02-21T03:01:45.684Z,56.33
2023-02-21T03:04:33.257Z,63.73
2023-02-21T03:07:37.535Z,59.07
2023-02-21T03:10:07.724Z,62.17
2023-02-21T03:12:54.022Z,58.33
2023-02-21T03:15:33.805Z,58.10
2023-02-21T03:18:07.344Z,58.90
2023-02-21T03:20:35.107Z,63.07
2023-02-21T03:23:04.665Z,64.90
2023-02-21T03:25:34.019Z,66.03
2023-02-21T03:28:02.027Z,60.23
2023-02-21T03:30:31.899Z,66.43
2023-02-21T03:32:58.671Z,68.87
2023-02-21T03:35:32.062Z,70.43
2023-02-21T03:37:59.672Z,64.43
2023-02-21T03:40:31.742Z,68.23
2023-02-21T03:43:00.591Z,71.53
2023-02-21T03:45:27.667Z,75.20
2023-02-21T03:47:54.423Z,76.73
2023-02-21T03:50:21.136Z,69.33
2023-02-21T03:52:47.817Z,72.27
2023-02-21T03:55:14.608Z,68.77
2023-02-21T03:57:43.403Z,73.80
2023-02-21T04:00:11.749Z,79.63
2023-02-21T04:02:38.588Z,82.17
2023-02-21T04:05:06.356Z,73.47
2023-02-21T04:07:33.070Z,73.80
2023-02-21T04:09:59.856Z,72.93
2023-02-21T04:12:28.165Z,73.00
2023-02-21T04:14:56.597Z,74.47
2023-02-21T04:17:23.409Z,77.07
2023-02-21T04:19:50.146Z,78.63
2023-02-21T04:22:17.112Z,73.37
2023-02-21T04:24:44.105Z,69.57
2023-02-21T04:27:10.856Z,76.77
2023-02-21T04:29:37.625Z,70.73
2023-02-21T04:32:04.730Z,74.60
2023-02-21T04:34:31.676Z,70.10
2023-02-21T04:36:58.342Z,72.10
2023-02-21T04:39:25.108Z,68.70
2023-02-21T04:41:54.891Z,68.03
2023-02-21T04:44:21.588Z,72.00
2023-02-21T04:46:48.350Z,66.27
2023-02-21T04:49:15.465Z,68.23
2023-02-21T04:51:42.647Z,69.23
2023-02-21T04:54:09.619Z,73.43
2023-02-21T04:56:37.793Z,68.97
2023-02-21T04:59:04.615Z,69.83
2023-02-21T05:01:31.857Z,67.87
2023-02-21T05:04:00.246Z,78.93
2023-02-21T05:06:28.673Z,81.67
2023-02-21T05:08:55.977Z,78.30
2023-02-21T05:11:23.507Z,72.33
2023-02-21T05:13:50.640Z,66.73
2023-02-21T05:16:18.385Z,67.07
2023-02-21T05:18:47.262Z,69.13
2023-02-21T05:21:16.994Z,64.23
2023-02-21T05:23:56.376Z,65.90
2023-02-21T05:26:31.049Z,65.53
2023-02-21T05:28:58.080Z,62.67
2023-02-21T05:31:24.938Z,68.23
2023-02-21T05:33:51.803Z,65.13
2023-02-21T05:36:18.769Z,67.27
2023-02-21T05:38:48.792Z,67.77
2023-02-21T05:41:18.752Z,70.33
2023-02-21T05:43:47.533Z,77.03
2023-02-21T05:46:38.928Z,66.97
2023-02-21T05:49:05.739Z,72.50
2023-02-21T05:51:38.081Z,68.90
2023-02-21T05:54:07.108Z,75.27
2023-02-21T05:56:44.645Z,84.63
2023-02-21T05:59:12.483Z,83.90
2023-02-21T06:01:39.919Z,81.10
2023-02-21T06:04:07.934Z,74.97
2023-02-21T06:06:35.501Z,74.40
2023-02-21T06:09:02.870Z,71.63
2023-02-21T06:11:36.302Z,66.87
2023-02-21T06:14:06.162Z,74.47
2023-02-21T06:16:38.116Z,66.60
2023-02-21T06:19:07.038Z,73.87
2023-02-21T06:21:36.627Z,63.73
2023-02-21T06:24:04.552Z,66.63
2023-02-21T06:26:33.953Z,64.53
2023-02-21T06:29:00.702Z,70.80
2023-02-21T06:31:30.539Z,66.60
2023-02-21T06:33:57.431Z,66.07
2023-02-21T06:36:27.228Z,67.83
2023-02-21T06:38:58.679Z,63.57
2023-02-21T06:41:28.339Z,58.23
2023-02-21T06:43:56.454Z,61.67
2023-02-21T06:46:26.458Z,64.57
2023-02-21T06:48:53.309Z,61.60
2023-02-21T06:51:20.376Z,58.50
2023-02-21T06:53:50.649Z,59.43
2023-02-21T06:56:17.661Z,60.27
2023-02-21T06:58:44.453Z,56.50
2023-02-21T07:01:14.657Z,63.10
2023-02-21T07:03:43.479Z,56.10
2023-02-21T07:06:10.529Z,57.97
2023-02-21T07:08:37.265Z,55.77
2023-02-21T07:11:05.760Z,55.73
2023-02-21T07:13:33.045Z,57.87
2023-02-21T07:16:01.286Z,54.50
2023-02-21T07:18:28.140Z,60.57
2023-02-21T07:20:55.208Z,60.70
2023-02-21T07:23:22.136Z,64.50
2023-02-21T07:25:49.138Z,62.20
2023-02-21T07:28:16.231Z,66.13
2023-02-21T07:30:44.255Z,60.03
2023-02-21T07:33:11.033Z,58.37
2023-02-21T07:35:40.830Z,60.50
2023-02-21T07:38:07.769Z,54.13
2023-02-21T07:40:34.607Z,55.63
2023-02-21T07:43:02.353Z,61.60
2023-02-21T07:45:29.061Z,66.37
2023-02-21T07:47:55.788Z,59.37
2023-02-21T07:50:23.740Z,64.53
2023-02-21T07:52:50.709Z,53.57
2023-02-21T07:55:17.610Z,53.37
2023-02-21T07:57:45.429Z,50.67
2023-02-21T08:00:12.454Z,50.93
2023-02-21T08:02:39.506Z,52.27
2023-02-21T08:05:07.911Z,54.43
2023-02-21T08:07:34.684Z,55.87
2023-02-21T08:10:04.089Z,50.33
2023-02-21T08:12:30.908Z,53.27
2023-02-21T08:14:57.663Z,50.77
2023-02-21T08:17:24.683Z,51.53
2023-02-21T08:19:51.393Z,46.60
2023-02-21T08:22:18.607Z,52.53
2023-02-21T08:24:46.171Z,50.00
2023-02-21T08:27:13.002Z,56.07
2023-02-21T08:29:40.602Z,52.53
2023-02-21T08:32:07.418Z,55.87
2023-02-21T08:34:34.294Z,48.13
2023-02-21T08:37:01.432Z,43.20
2023-02-21T08:39:31.985Z,45.63
2023-02-21T08:41:58.802Z,44.57
2023-02-21T08:44:25.684Z,46.83
2023-02-21T08:46:52.442Z,43.30
2023-02-21T08:49:19.250Z,43.67
2023-02-21T08:51:46.011Z,42.33
2023-02-21T08:54:15.755Z,42.53
2023-02-21T08:56:45.283Z,46.47
2023-02-21T08:59:12.071Z,42.07
2023-02-21T09:01:38.899Z,44.37
2023-02-21T09:04:10.510Z,44.60
2023-02-21T09:06:37.211Z,35.40
2023-02-21T09:09:04.055Z,48.43
2023-02-21T09:11:32.364Z,39.40
2023-02-21T09:13:59.324Z,38.27
2023-02-21T09:16:26.101Z,35.13
2023-02-21T09:19:06.956Z,35.43
2023-02-21T09:21:34.994Z,41.43
2023-02-21T09:24:03.011Z,33.60
2023-02-21T09:26:32.507Z,39.60
2023-02-21T09:28:59.341Z,41.10
2023-02-21T09:31:26.123Z,34.20
2023-02-21T09:33:53.033Z,36.90
2023-02-21T09:36:24.214Z,35.53
2023-02-21T09:38:51.838Z,29.10
2023-02-21T09:41:20.037Z,35.37
2023-02-21T09:43:50.537Z,32.47
2023-02-21T09:46:36.150Z,36.30
2023-02-21T09:49:10.917Z,31.80
2023-02-21T09:51:41.653Z,31.20
2023-02-21T09:54:18.728Z,31.90
2023-02-21T09:56:46.146Z,34.67
2023-02-21T09:59:14.289Z,33.70
2023-02-21T10:02:05.919Z,33.83
2023-02-21T10:04:50.729Z,31.33
2023-02-21T10:07:40.681Z,29.67
2023-02-21T10:10:22.319Z,29.63
2023-02-21T10:13:27.544Z,30.57
2023-02-21T10:16:22.269Z,30.93
2023-02-21T10:19:16.507Z,32.97
2023-02-21T10:21:46.480Z,29.30
2023-02-21T10:24:27.134Z,28.57
2023-02-21T10:27:05.666Z,27.10
2023-02-21T10:29:57.096Z,28.57
2023-02-21T10:32:27.594Z,31.57
2023-02-21T10:34:55.077Z,29.50
2023-02-21T10:37:27.921Z,30.37
2023-02-21T10:40:10.572Z,29.93
2023-02-21T10:43:12.927Z,27.13
2023-02-21T10:45:52.071Z,24.57
2023-02-21T10:48:21.856Z,27.87
2023-02-21T10:51:12.830Z,25.07
2023-02-21T10:53:45.584Z,27.37
2023-02-21T10:56:15.418Z,27.83
2023-02-21T10:58:46.540Z,25.87
2023-02-21T11:01:22.070Z,28.90
2023-02-21T11:03:51.906Z,29.80
2023-02-21T11:06:30.905Z,27.00
2023-02-21T11:08:59.416Z,32.17
2023-02-21T11:11:41.541Z,26.70
2023-02-21T11:14:20.428Z,29.00
2023-02-21T11:17:07.384Z,28.97
2023-02-21T11:19:53.074Z,27.87
2023-02-21T11:22:43.876Z,32.37
2023-02-21T11:25:28.903Z,28.17
2023-02-21T11:28:10.554Z,26.10
2023-02-21T11:30:40.411Z,31.70
2023-02-21T11:33:09.073Z,26.30
2023-02-21T11:35:43.246Z,31.27
2023-02-21T11:38:50.684Z,28.37
2023-02-21T11:41:20.569Z,27.23
2023-02-21T11:43:52.607Z,29.10
2023-02-21T11:46:31.070Z,31.00
2023-02-21T11:49:52.032Z,28.23
2023-02-21T11:52:32.949Z,29.13
2023-02-21T11:55:02.680Z,29.70
2023-02-21T11:57:32.222Z,30.97
2023-02-21T12:00:26.069Z,29.30
2023-02-21T12:02:59.132Z,27.07
2023-02-21T12:05:46.350Z,27.77
2023-02-21T12:08:37.152Z,27.23
2023-02-21T12:11:14.465Z,29.33
2023-02-21T12:13:56.216Z,32.10
2023-02-21T12:16:44.171Z,29.07
2023-02-21T12:19:44.103Z,30.00
2023-02-21T12:22:37.705Z,24.77
2023-02-21T12:25:22.201Z,27.17
2023-02-21T12:28:12.951Z,30.13
2023-02-21T12:30:59.970Z,29.67
2023-02-21T12:33:49.275Z,26.47
2023-02-21T12:36:38.112Z,23.70
2023-02-21T12:39:34.366Z,28.47
2023-02-21T12:42:06.321Z,27.20
2023-02-21T12:44:39.772Z,26.20
2023-02-21T12:47:15.397Z,27.47
2023-02-21T12:50:03.269Z,28.73
2023-02-21T12:53:02.853Z,21.90
2023-02-21T12:55:45.575Z,24.73
2023-02-21T12:58:31.119Z,24.00
2023-02-21T13:01:23.469Z,22.23
2023-02-21T13:03:53.226Z,23.30
2023-02-21T13:06:33.936Z,20.90
2023-02-21T13:09:15.789Z,23.93
2023-02-21T13:12:05.235Z,26.30
2023-02-21T13:14:58.695Z,26.27
2023-02-21T13:17:26.519Z,30.03
2023-02-21T13:20:06.486Z,24.07
2023-02-21T13:23:12.637Z,26.93
2023-02-21T13:25:44.838Z,25.30
2023-02-21T13:28:11.525Z,19.17
2023-02-21T13:30:42.485Z,22.20
2023-02-21T13:33:24.935Z,23.13
2023-02-21T13:35:51.956Z,24.03
2023-02-21T13:38:20.700Z,28.17
2023-02-21T13:40:55.162Z,19.73
2023-02-21T13:43:34.130Z,25.17
2023-02-21T13:46:42.736Z,23.60
2023-02-21T13:49:50.923Z,20.60
2023-02-21T13:52:23.124Z,23.70
2023-02-21T13:55:11.580Z,17.60
2023-02-21T13:57:49.568Z,20.30
2023-02-21T14:00:24.832Z,17.30
2023-02-21T14:03:21.278Z,16.53
2023-02-21T14:05:52.219Z,12.80
2023-02-21T14:08:21.432Z,15.53
2023-02-21T14:10:57.987Z,14.83
2023-02-21T14:13:54.725Z,16.07
2023-02-21T14:16:46.183Z,17.67
2023-02-21T14:19:37.182Z,14.27
2023-02-21T14:22:23.940Z,17.57
2023-02-21T14:25:03.678Z,16.23
2023-02-21T14:27:32.824Z,15.17
2023-02-21T14:30:02.399Z,15.67
2023-02-21T14:32:55.064Z,18.00
2023-02-21T14:35:45.929Z,17.83
2023-02-21T14:38:31.204Z,16.40
2023-02-21T14:41:18.561Z,16.60
2023-02-21T14:44:18.006Z,18.67
2023-02-21T14:47:07.798Z,17.70
2023-02-21T14:49:46.025Z,20.60
2023-02-21T14:52:29.425Z,19.83
2023-02-21T14:55:26.088Z,21.53
2023-02-21T14:58:11.489Z,20.40
2023-02-21T15:01:03.998Z,18.00
2023-02-21T15:04:02.042Z,19.17
2023-02-21T15:06:30.692Z,19.97
2023-02-21T15:09:00.414Z,16.67
2023-02-21T15:11:37.565Z,19.13
2023-02-21T15:14:11.905Z,18.23
2023-02-21T15:16:46.686Z,17.87
2023-02-21T15:19:31.159Z,18.97
2023-02-21T15:22:24.435Z,24.53
2023-02-21T15:25:14.790Z,23.53
2023-02-21T15:27:51.021Z,20.73
2023-02-21T15:30:24.081Z,23.10
2023-02-21T15:33:14.468Z,21.90
2023-02-21T15:35:50.835Z,23.43
2023-02-21T15:38:41.527Z,21.17
2023-02-21T15:41:31.212Z,22.43
2023-02-21T15:44:18.956Z,25.57
2023-02-21T15:47:01.487Z,25.53
2023-02-21T15:49:39.468Z,23.73
2023-02-21T15:52:06.690Z,25.53
2023-02-21T15:54:39.209Z,27.83
2023-02-21T15:57:22.303Z,27.03
2023-02-21T15:59:51.054Z,32.17
2023-02-21T16:02:25.194Z,29.13
2023-02-21T16:04:53.218Z,38.33
2023-02-21T16:07:35.113Z,34.70
2023-02-21T16:10:05.677Z,36.77
2023-02-21T16:12:36.935Z,35.27
2023-02-21T16:15:08.922Z,40.60
2023-02-21T16:17:38.717Z,39.53
2023-02-21T16:20:31.324Z,41.43
2023-02-21T16:23:19.384Z,42.27
2023-02-21T16:26:17.916Z,39.67
2023-02-21T16:28:45.783Z,43.87
2023-02-21T16:31:23.947Z,43.77
2023-02-21T16:33:54.095Z,43.77
2023-02-21T16:36:27.594Z,47.57
2023-02-21T16:38:56.005Z,44.83
2023-02-21T16:41:22.972Z,50.23
2023-02-21T16:43:50.856Z,56.40
2023-02-21T16:46:30.277Z,56.10
2023-02-21T16:48:58.883Z,54.73
2023-02-21T16:51:25.887Z,54.07
2023-02-21T16:53:52.845Z,54.10
2023-02-21T16:56:19.668Z,52.50
2023-02-21T16:58:53.852Z,53.90
2023-02-21T17:01:32.825Z,55.63
2023-02-21T17:04:08.116Z,49.53
2023-02-21T17:06:35.032Z,53.73
2023-02-21T17:09:04.816Z,51.67
2023-02-21T17:11:31.550Z,51.57
2023-02-21T17:13:58.268Z,49.37
2023-02-21T17:16:25.105Z,47.37
2023-02-21T17:18:51.872Z,50.43
2023-02-21T17:21:18.844Z,48.77
2023-02-21T17:23:45.682Z,50.30
2023-02-21T17:26:13.167Z,55.27
2023-02-21T17:28:40.029Z,56.20
2023-02-21T17:31:06.978Z,65.83
2023-02-21T17:33:35.563Z,65.00
2023-02-21T17:36:02.396Z,62.77
2023-02-21T17:38:29.160Z,62.30
2023-02-21T17:40:56.385Z,63.87
2023-02-21T17:43:23.372Z,63.77
2023-02-21T17:45:50.178Z,67.37
2023-02-21T17:48:17.044Z,65.60
2023-02-21T17:50:43.825Z,65.97
2023-02-21T17:53:10.910Z,66.33
2023-02-21T17:55:37.698Z,69.73
2023-02-21T17:58:04.515Z,73.60
2023-02-21T18:00:35.242Z,65.67
2023-02-21T18:03:04.213Z,68.90
2023-02-21T18:05:32.061Z,65.70
2023-02-21T18:07:59.435Z,70.37
2023-02-21T18:10:27.335Z,73.10
2023-02-21T18:12:57.837Z,68.80
2023-02-21T18:15:32.655Z,66.20
2023-02-21T18:18:06.768Z,68.27
2023-02-21T18:20:34.101Z,64.93
2023-02-21T18:23:03.197Z,67.20
2023-02-21T18:25:30.078Z,61.67
2023-02-21T18:27:56.918Z,60.20
2023-02-21T18:30:23.760Z,61.33
2023-02-21T18:32:51.009Z,60.97
2023-02-21T18:35:18.563Z,69.73
2023-02-21T18:37:48.602Z,69.43
2023-02-21T18:40:18.091Z,69.77
2023-02-21T18:42:45.297Z,71.87
2023-02-21T18:45:12.519Z,70.67
2023-02-21T18:47:39.424Z,70.67
2023-02-21T18:50:07.273Z,64.70
2023-02-21T18:52:34.123Z,67.37
2023-02-21T18:55:03.773Z,68.77
2023-02-21T18:57:34.369Z,64.93
2023-02-21T19:00:01.199Z,70.43
2023-02-21T19:02:28.077Z,69.87
2023-02-21T19:04:54.916Z,65.97
2023-02-21T19:07:21.760Z,59.07
2023-02-21T19:09:51.972Z,61.10
2023-02-21T19:12:18.790Z,55.37
2023-02-21T19:14:48.177Z,52.00
2023-02-21T19:17:14.961Z,53.33
2023-02-21T19:19:41.844Z,54.23
2023-02-21T19:22:08.644Z,50.23
2023-02-21T19:24:35.364Z,48.33
2023-02-21T19:27:02.408Z,45.23
2023-02-21T19:29:29.489Z,43.63
2023-02-21T19:31:56.508Z,44.83
2023-02-21T19:34:23.383Z,40.10
2023-02-21T19:36:50.559Z,39.90
2023-02-21T19:39:17.403Z,43.90
2023-02-21T19:41:44.394Z,43.50
2023-02-21T19:44:12.287Z,45.50
2023-02-21T19:46:39.424Z,41.50
2023-02-21T19:49:07.373Z,42.47
2023-02-21T19:51:34.390Z,39.30
2023-02-21T19:54:04.398Z,45.87
2023-02-21T19:56:31.155Z,41.93
2023-02-21T19:59:00.953Z,40.67
2023-02-21T20:01:29.718Z,38.97
2023-02-21T20:03:59.254Z,36.53
2023-02-21T20:06:36.234Z,39.17
2023-02-21T20:09:07.587Z,40.03
2023-02-21T20:11:34.776Z,39.80
2023-02-21T20:14:01.714Z,36.57
2023-02-21T20:16:29.760Z,37.77
2023-02-21T20:18:57.512Z,35.70
2023-02-21T20:21:29.315Z,36.47
2023-02-21T20:24:00.198Z,34.70
2023-02-21T20:26:28.108Z,35.60
2023-02-21T20:28:56.049Z,34.13
2023-02-21T20:31:26.946Z,37.63
2023-02-21T20:33:56.297Z,37.77
2023-02-21T20:36:35.057Z,42.37
2023-02-21T20:39:04.457Z,37.47
2023-02-21T20:41:33.438Z,38.90
2023-02-21T20:44:00.559Z,38.70
2023-02-21T20:46:28.407Z,36.57
2023-02-21T20:48:59.044Z,43.40
2023-02-21T20:51:34.817Z,41.50
2023-02-21T20:54:01.729Z,47.37
2023-02-21T20:56:31.564Z,38.93
2023-02-21T20:58:58.374Z,41.27
2023-02-21T21:01:25.733Z,44.83
2023-02-21T21:03:57.138Z,38.67
2023-02-21T21:06:24.335Z,42.40
2023-02-21T21:08:54.522Z,37.70
2023-02-21T21:11:21.981Z,38.53
2023-02-21T21:13:50.277Z,39.73
2023-02-21T21:16:18.323Z,37.83
2023-02-21T21:18:47.149Z,39.40
2023-02-21T21:21:14.402Z,37.17
2023-02-21T21:23:43.170Z,37.47
2023-02-21T21:26:15.005Z,35.77
2023-02-21T21:28:41.884Z,36.03
2023-02-21T21:31:09.150Z,38.20
2023-02-21T21:33:35.975Z,36.57
2023-02-21T21:36:03.520Z,37.53
2023-02-21T21:38:31.710Z,36.47
2023-02-21T21:40:58.551Z,40.97
2023-02-21T21:43:26.512Z,37.40
2023-02-21T21:45:53.370Z,40.67
2023-02-21T21:48:20.254Z,37.17
2023-02-21T21:50:47.242Z,35.50
2023-02-21T21:53:14.416Z,39.23
2023-02-21T21:55:47.066Z,39.63
2023-02-21T21:58:16.989Z,40.63
2023-02-21T22:00:46.133Z,42.10
2023-02-21T22:03:18.314Z,40.77
2023-02-21T22:05:46.151Z,41.63
2023-02-21T22:08:18.576Z,41.93
2023-02-21T22:10:50.738Z,45.40
2023-02-21T22:13:20.690Z,45.23
2023-02-21T22:15:48.465Z,46.57
2023-02-21T22:18:19.927Z,47.73
2023-02-21T22:20:50.442Z,45.80
2023-02-21T22:23:21.324Z,43.27
2023-02-21T22:25:48.418Z,45.33
2023-02-21T22:28:15.401Z,45.53
2023-02-21T22:30:46.389Z,45.37
2023-02-21T22:33:19.736Z,41.23
2023-02-21T22:35:47.346Z,44.70
2023-02-21T22:38:17.189Z,46.40
2023-02-21T22:40:44.153Z,42.77
2023-02-21T22:43:12.315Z,45.57
2023-02-21T22:45:49.832Z,44.73
2023-02-21T22:48:20.171Z,45.33
2023-02-21T22:50:47.604Z,41.90
2023-02-21T22:53:18.827Z,43.37
2023-02-21T22:55:51.866Z,43.10
2023-02-21T22:58:20.424Z,40.43
2023-02-21T23:00:49.018Z,42.20
2023-02-21T23:03:16.707Z,43.97
2023-02-21T23:05:46.198Z,44.87
2023-02-21T23:08:22.656Z,43.00
2023-02-21T23:10:49.459Z,43.23
2023-02-21T23:13:20.694Z,41.03
2023-02-21T23:15:48.114Z,42.10
2023-02-21T23:18:23.321Z,41.43
2023-02-21T23:20:53.086Z,37.87
2023-02-21T23:23:22.466Z,38.37
2023-02-21T23:25:49.288Z,39.00
2023-02-21T23:28:16.463Z,40.03
2023-02-21T23:30:48.919Z,35.03
2023-02-21T23:33:27.139Z,43.27
2023-02-21T23:35:55.746Z,38.50
2023-02-21T23:38:28.152Z,41.17
2023-02-21T23:40:58.801Z,38.30
2023-02-21T23:43:29.538Z,40.63
2023-02-21T23:46:02.828Z,38.47
2023-02-21T23:48:29.791Z,46.63
2023-02-21T23:50:58.012Z,41.73
2023-02-21T23:53:29.156Z,40.07
2023-02-21T23:56:00.993Z,42.67
2023-02-21T23:58:31.634Z,42.27
